sensor_id;sensor_type;location;lat;lon;timestamp;pressure;altitude;pressure_sealevel;temperature;humidity
30819;BME280;17546;42.674;23.284;2023-04-05T00:00:09;94246.03;;;5.22;53.19
30819;BME280;17546;42.674;23.284;2023-04-05T00:02:35;94236.44;;;5.62;52.88
30819;BME280;17546;42.674;23.284;2023-04-05T00:05:02;94228.31;;;5.52;52.84
30819;BME280;17546;42.674;23.284;2023-04-05T00:07:29;94249.44;;;5.46;52.84
30819;BME280;17546;42.674;23.284;2023-04-05T00:09:54;94242.44;;;5.15;53.55
30819;BME280;17546;42.674;23.284;2023-04-05T00:12:20;94255.22;;;5.48;53.45
30819;BME280;17546;42.674;23.284;2023-04-05T00:14:45;94250.19;;;5.62;53.16
30819;BME280;17546;42.674;23.284;2023-04-05T00:17:11;94236.13;;;5.74;52.40
30819;BME280;17546;42.674;23.284;2023-04-05T00:19:37;94238.97;;;5.80;52.30
30819;BME280;17546;42.674;23.284;2023-04-05T00:22:03;94220.91;;;6.09;51.65
30819;BME280;17546;42.674;23.284;2023-04-05T00:24:29;94241.72;;;5.80;51.71
30819;BME280;17546;42.674;23.284;2023-04-05T00:26:56;94248.03;;;5.86;51.94
30819;BME280;17546;42.674;23.284;2023-04-05T00:29:21;94236.28;;;6.00;51.86
30819;BME280;17546;42.674;23.284;2023-04-05T00:31:47;94250.94;;;5.62;52.00
30819;BME280;17546;42.674;23.284;2023-04-05T00:34:12;94232.59;;;5.38;52.43
30819;BME280;17546;42.674;23.284;2023-04-05T00:36:37;94250.75;;;5.66;52.23
30819;BME280;17546;42.674;23.284;2023-04-05T00:39:03;94237.47;;;5.64;51.55
30819;BME280;17546;42.674;23.284;2023-04-05T00:41:28;94238.63;;;5.57;51.84
30819;BME280;17546;42.674;23.284;2023-04-05T00:43:54;94243.47;;;5.63;52.12
30819;BME280;17546;42.674;23.284;2023-04-05T00:46:21;94236.38;;;5.41;53.22
30819;BME280;17546;42.674;23.284;2023-04-05T00:48:46;94225.97;;;5.15;52.10
30819;BME280;17546;42.674;23.284;2023-04-05T00:51:12;94227.19;;;5.44;51.64
30819;BME280;17546;42.674;23.284;2023-04-05T00:53:38;94230.53;;;5.18;52.84
30819;BME280;17546;42.674;23.284;2023-04-05T00:56:05;94251.44;;;5.46;52.83
30819;BME280;17546;42.674;23.284;2023-04-05T00:58:30;94266.19;;;5.63;52.08
30819;BME280;17546;42.674;23.284;2023-04-05T01:01:03;94246.59;;;6.06;51.00
30819;BME280;17546;42.674;23.284;2023-04-05T01:03:34;94228.88;;;6.07;50.86
30819;BME280;17546;42.674;23.284;2023-04-05T01:06:19;94260.19;;;5.94;50.57
30819;BME280;17546;42.674;23.284;2023-04-05T01:09:03;94261.00;;;6.36;49.40
30819;BME280;17546;42.674;23.284;2023-04-05T01:11:32;94250.75;;;5.66;51.66
30819;BME280;17546;42.674;23.284;2023-04-05T01:13:59;94258.84;;;6.05;51.22
30819;BME280;17546;42.674;23.284;2023-04-05T01:16:25;94245.53;;;5.53;51.42
30819;BME280;17546;42.674;23.284;2023-04-05T01:18:52;94243.28;;;6.02;51.33
30819;BME280;17546;42.674;23.284;2023-04-05T01:23:52;94260.81;;;6.39;49.95
30819;BME280;17546;42.674;23.284;2023-04-05T01:31:36;94272.63;;;6.46;49.81
30819;BME280;17546;42.674;23.284;2023-04-05T01:36:55;94250.63;;;6.46;48.67
30819;BME280;17546;42.674;23.284;2023-04-05T01:39:22;94269.81;;;6.60;49.25
30819;BME280;17546;42.674;23.284;2023-04-05T01:41:48;94275.31;;;7.01;49.02
30819;BME280;17546;42.674;23.284;2023-04-05T01:44:14;94246.69;;;6.52;48.61
30819;BME280;17546;42.674;23.284;2023-04-05T01:46:40;94253.78;;;6.38;49.20
30819;BME280;17546;42.674;23.284;2023-04-05T01:49:05;94260.75;;;6.75;48.78
30819;BME280;17546;42.674;23.284;2023-04-05T01:51:30;94245.72;;;6.14;50.08
30819;BME280;17546;42.674;23.284;2023-04-05T01:53:56;94259.72;;;5.81;50.23
30819;BME280;17546;42.674;23.284;2023-04-05T01:56:22;94260.13;;;5.44;51.59
30819;BME280;17546;42.674;23.284;2023-04-05T01:58:47;94274.25;;;5.67;51.34
30819;BME280;17546;42.674;23.284;2023-04-05T02:01:13;94261.00;;;5.50;51.36
30819;BME280;17546;42.674;23.284;2023-04-05T02:03:38;94264.03;;;5.67;51.43
30819;BME280;17546;42.674;23.284;2023-04-05T02:06:04;94256.75;;;5.99;50.51
30819;BME280;17546;42.674;23.284;2023-04-05T02:08:29;94278.00;;;5.84;50.71
30819;BME280;17546;42.674;23.284;2023-04-05T02:10:55;94264.88;;;5.73;51.14
30819;BME280;17546;42.674;23.284;2023-04-05T02:13:20;94260.31;;;5.70;51.51
30819;BME280;17546;42.674;23.284;2023-04-05T02:15:50;94263.81;;;6.41;50.41
30819;BME280;17546;42.674;23.284;2023-04-05T02:18:16;94270.66;;;5.61;51.38
30819;BME280;17546;42.674;23.284;2023-04-05T02:20:50;94277.00;;;6.17;49.58
30819;BME280;17546;42.674;23.284;2023-04-05T02:23:17;94266.94;;;6.49;50.35
30819;BME280;17546;42.674;23.284;2023-04-05T02:25:43;94253.03;;;5.52;51.04
30819;BME280;17546;42.674;23.284;2023-04-05T02:28:08;94262.16;;;5.94;50.75
30819;BME280;17546;42.674;23.284;2023-04-05T02:30:34;94279.31;;;6.04;50.30
30819;BME280;17546;42.674;23.284;2023-04-05T02:32:59;94267.28;;;6.01;49.94
30819;BME280;17546;42.674;23.284;2023-04-05T02:35:26;94242.91;;;5.29;51.84
30819;BME280;17546;42.674;23.284;2023-04-05T02:37:51;94265.44;;;5.33;52.07
30819;BME280;17546;42.674;23.284;2023-04-05T02:40:17;94269.53;;;5.52;51.59
30819;BME280;17546;42.674;23.284;2023-04-05T02:42:42;94251.75;;;5.83;51.18
30819;BME280;17546;42.674;23.284;2023-04-05T02:45:08;94263.28;;;5.37;52.22
30819;BME280;17546;42.674;23.284;2023-04-05T02:47:33;94258.88;;;6.25;50.37
30819;BME280;17546;42.674;23.284;2023-04-05T02:49:59;94243.97;;;5.96;50.26
30819;BME280;17546;42.674;23.284;2023-04-05T02:52:24;94252.69;;;5.30;52.37
30819;BME280;17546;42.674;23.284;2023-04-05T02:54:50;94268.94;;;5.78;51.48
30819;BME280;17546;42.674;23.284;2023-04-05T02:57:15;94262.81;;;6.04;50.56
30819;BME280;17546;42.674;23.284;2023-04-05T02:59:40;94241.66;;;6.10;50.45
30819;BME280;17546;42.674;23.284;2023-04-05T03:02:08;94261.50;;;6.55;49.43
30819;BME280;17546;42.674;23.284;2023-04-05T03:04:33;94252.38;;;5.93;50.20
30819;BME280;17546;42.674;23.284;2023-04-05T03:07:03;94255.34;;;6.04;50.75
30819;BME280;17546;42.674;23.284;2023-04-05T03:09:29;94245.22;;;5.95;50.02
30819;BME280;17546;42.674;23.284;2023-04-05T03:11:59;94233.69;;;5.62;50.51
30819;BME280;17546;42.674;23.284;2023-04-05T03:14:26;94226.84;;;6.22;49.59
30819;BME280;17546;42.674;23.284;2023-04-05T03:16:51;94243.06;;;6.40;48.71
30819;BME280;17546;42.674;23.284;2023-04-05T03:19:17;94263.00;;;6.56;48.91
30819;BME280;17546;42.674;23.284;2023-04-05T03:21:47;94260.53;;;6.58;49.29
30819;BME280;17546;42.674;23.284;2023-04-05T03:24:13;94227.25;;;6.35;49.44
30819;BME280;17546;42.674;23.284;2023-04-05T03:26:42;94253.56;;;6.83;48.93
30819;BME280;17546;42.674;23.284;2023-04-05T03:29:07;94256.19;;;6.72;49.90
30819;BME280;17546;42.674;23.284;2023-04-05T03:31:33;94255.31;;;6.60;48.76
30819;BME280;17546;42.674;23.284;2023-04-05T03:33:58;94252.91;;;6.27;50.21
30819;BME280;17546;42.674;23.284;2023-04-05T03:36:23;94241.28;;;5.67;51.60
30819;BME280;17546;42.674;23.284;2023-04-05T03:38:49;94238.53;;;5.67;51.76
30819;BME280;17546;42.674;23.284;2023-04-05T03:41:15;94238.19;;;5.79;51.31
30819;BME280;17546;42.674;23.284;2023-04-05T03:43:41;94261.34;;;6.23;52.01
30819;BME280;17546;42.674;23.284;2023-04-05T03:46:06;94248.44;;;5.79;51.57
30819;BME280;17546;42.674;23.284;2023-04-05T03:48:32;94273.75;;;6.74;50.20
30819;BME280;17546;42.674;23.284;2023-04-05T03:50:57;94249.53;;;6.58;49.95
30819;BME280;17546;42.674;23.284;2023-04-05T03:53:23;94254.34;;;6.43;50.48
30819;BME280;17546;42.674;23.284;2023-04-05T03:55:48;94269.63;;;6.64;50.64
30819;BME280;17546;42.674;23.284;2023-04-05T03:58:15;94278.84;;;6.81;50.60
30819;BME280;17546;42.674;23.284;2023-04-05T04:00:41;94275.34;;;5.90;52.26
30819;BME280;17546;42.674;23.284;2023-04-05T04:03:06;94276.06;;;6.20;52.16
30819;BME280;17546;42.674;23.284;2023-04-05T04:05:33;94272.38;;;5.43;53.65
30819;BME280;17546;42.674;23.284;2023-04-05T04:08:04;94278.69;;;5.64;53.98
30819;BME280;17546;42.674;23.284;2023-04-05T04:10:30;94283.25;;;5.82;53.01
30819;BME280;17546;42.674;23.284;2023-04-05T04:12:55;94269.47;;;5.97;53.54
30819;BME280;17546;42.674;23.284;2023-04-05T04:15:20;94257.25;;;5.98;53.06
30819;BME280;17546;42.674;23.284;2023-04-05T04:17:46;94290.25;;;6.95;51.75
30819;BME280;17546;42.674;23.284;2023-04-05T04:20:11;94287.78;;;6.97;51.21
30819;BME280;17546;42.674;23.284;2023-04-05T04:22:37;94288.69;;;7.14;50.66
30819;BME280;17546;42.674;23.284;2023-04-05T04:25:09;94293.63;;;6.43;51.18
30819;BME280;17546;42.674;23.284;2023-04-05T04:27:40;94287.84;;;5.91;52.73
30819;BME280;17546;42.674;23.284;2023-04-05T04:30:12;94292.25;;;5.53;53.96
30819;BME280;17546;42.674;23.284;2023-04-05T04:32:38;94289.09;;;5.90;53.66
30819;BME280;17546;42.674;23.284;2023-04-05T04:35:19;94290.47;;;6.15;52.88
30819;BME280;17546;42.674;23.284;2023-04-05T04:37:53;94293.94;;;5.95;53.59
30819;BME280;17546;42.674;23.284;2023-04-05T04:40:36;94299.19;;;5.63;54.01
30819;BME280;17546;42.674;23.284;2023-04-05T04:43:10;94280.44;;;6.12;52.87
30819;BME280;17546;42.674;23.284;2023-04-05T04:45:39;94304.69;;;6.90;51.46
30819;BME280;17546;42.674;23.284;2023-04-05T04:48:05;94295.50;;;6.16;52.04
30819;BME280;17546;42.674;23.284;2023-04-05T04:50:32;94303.78;;;6.37;51.14
30819;BME280;17546;42.674;23.284;2023-04-05T04:52:59;94302.19;;;6.30;51.37
30819;BME280;17546;42.674;23.284;2023-04-05T04:55:27;94306.44;;;6.67;50.58
30819;BME280;17546;42.674;23.284;2023-04-05T04:57:53;94307.38;;;5.93;51.85
30819;BME280;17546;42.674;23.284;2023-04-05T05:00:20;94305.31;;;6.03;51.70
30819;BME280;17546;42.674;23.284;2023-04-05T05:02:46;94300.38;;;5.92;51.76
30819;BME280;17546;42.674;23.284;2023-04-05T05:05:12;94279.28;;;5.38;52.38
30819;BME280;17546;42.674;23.284;2023-04-05T05:07:41;94293.38;;;5.76;52.61
30819;BME280;17546;42.674;23.284;2023-04-05T05:10:07;94297.00;;;5.52;53.03
30819;BME280;17546;42.674;23.284;2023-04-05T05:12:33;94304.38;;;5.61;52.57
30819;BME280;17546;42.674;23.284;2023-04-05T05:14:58;94309.69;;;5.94;52.01
30819;BME280;17546;42.674;23.284;2023-04-05T05:17:24;94314.78;;;5.42;52.90
30819;BME280;17546;42.674;23.284;2023-04-05T05:19:49;94293.78;;;5.09;54.11
30819;BME280;17546;42.674;23.284;2023-04-05T05:22:16;94298.13;;;5.46;53.19
30819;BME280;17546;42.674;23.284;2023-04-05T05:24:42;94310.63;;;5.91;52.69
30819;BME280;17546;42.674;23.284;2023-04-05T05:27:08;94312.72;;;5.96;52.13
30819;BME280;17546;42.674;23.284;2023-04-05T05:29:33;94312.59;;;6.41;52.46
30819;BME280;17546;42.674;23.284;2023-04-05T05:31:58;94294.13;;;5.91;52.53
30819;BME280;17546;42.674;23.284;2023-04-05T05:34:24;94297.91;;;6.09;52.05
30819;BME280;17546;42.674;23.284;2023-04-05T05:36:49;94320.50;;;5.53;52.44
30819;BME280;17546;42.674;23.284;2023-04-05T05:39:16;94291.00;;;5.69;52.79
30819;BME280;17546;42.674;23.284;2023-04-05T05:41:43;94297.78;;;5.38;52.84
30819;BME280;17546;42.674;23.284;2023-04-05T05:44:08;94309.31;;;5.57;52.80
30819;BME280;17546;42.674;23.284;2023-04-05T05:46:34;94312.53;;;5.70;52.48
30819;BME280;17546;42.674;23.284;2023-04-05T05:48:59;94299.75;;;5.82;51.92
30819;BME280;17546;42.674;23.284;2023-04-05T05:51:25;94308.16;;;5.78;51.99
30819;BME280;17546;42.674;23.284;2023-04-05T05:53:50;94296.75;;;6.15;50.89
30819;BME280;17546;42.674;23.284;2023-04-05T05:56:15;94284.44;;;6.11;50.45
30819;BME280;17546;42.674;23.284;2023-04-05T05:58:41;94274.75;;;6.15;50.65
30819;BME280;17546;42.674;23.284;2023-04-05T06:01:06;94297.63;;;6.07;49.69
30819;BME280;17546;42.674;23.284;2023-04-05T06:03:32;94314.59;;;5.90;51.09
30819;BME280;17546;42.674;23.284;2023-04-05T06:05:58;94301.59;;;6.06;49.53
30819;BME280;17546;42.674;23.284;2023-04-05T06:08:25;94311.22;;;6.31;50.44
30819;BME280;17546;42.674;23.284;2023-04-05T06:10:52;94304.56;;;6.58;49.21
30819;BME280;17546;42.674;23.284;2023-04-05T06:13:18;94321.28;;;6.19;49.99
30819;BME280;17546;42.674;23.284;2023-04-05T06:15:45;94320.88;;;5.76;50.54
30819;BME280;17546;42.674;23.284;2023-04-05T06:18:11;94322.91;;;6.81;49.49
30819;BME280;17546;42.674;23.284;2023-04-05T06:20:36;94313.75;;;6.90;48.60
30819;BME280;17546;42.674;23.284;2023-04-05T06:23:07;94293.44;;;6.47;47.54
30819;BME280;17546;42.674;23.284;2023-04-05T06:25:32;94293.66;;;6.28;48.60
30819;BME280;17546;42.674;23.284;2023-04-05T06:27:58;94315.84;;;5.89;49.40
30819;BME280;17546;42.674;23.284;2023-04-05T06:30:23;94316.22;;;5.82;49.89
30819;BME280;17546;42.674;23.284;2023-04-05T06:32:49;94323.13;;;5.92;49.44
30819;BME280;17546;42.674;23.284;2023-04-05T06:35:22;94326.53;;;5.87;47.97
30819;BME280;17546;42.674;23.284;2023-04-05T06:37:48;94324.88;;;6.60;48.42
30819;BME280;17546;42.674;23.284;2023-04-05T06:40:14;94321.28;;;6.54;47.10
30819;BME280;17546;42.674;23.284;2023-04-05T06:42:40;94333.66;;;6.44;47.34
30819;BME280;17546;42.674;23.284;2023-04-05T06:45:06;94322.75;;;6.70;48.02
30819;BME280;17546;42.674;23.284;2023-04-05T06:47:36;94318.06;;;6.76;46.67
30819;BME280;17546;42.674;23.284;2023-04-05T06:50:02;94342.91;;;6.61;47.06
30819;BME280;17546;42.674;23.284;2023-04-05T06:52:28;94348.91;;;7.21;46.48
30819;BME280;17546;42.674;23.284;2023-04-05T06:54:53;94339.59;;;7.19;46.53
30819;BME280;17546;42.674;23.284;2023-04-05T06:57:19;94344.41;;;6.83;47.01
30819;BME280;17546;42.674;23.284;2023-04-05T06:59:44;94355.31;;;6.92;46.76
30819;BME280;17546;42.674;23.284;2023-04-05T07:02:10;94339.56;;;6.93;47.05
30819;BME280;17546;42.674;23.284;2023-04-05T07:04:38;94339.47;;;6.67;46.41
30819;BME280;17546;42.674;23.284;2023-04-05T07:07:04;94341.59;;;6.98;45.51
30819;BME280;17546;42.674;23.284;2023-04-05T07:09:33;94346.66;;;5.93;47.56
30819;BME280;17546;42.674;23.284;2023-04-05T07:11:59;94368.81;;;6.90;46.54
30819;BME280;17546;42.674;23.284;2023-04-05T07:14:25;94368.16;;;6.80;46.02
30819;BME280;17546;42.674;23.284;2023-04-05T07:16:53;94338.13;;;5.91;47.79
30819;BME280;17546;42.674;23.284;2023-04-05T07:19:18;94354.38;;;6.39;46.68
30819;BME280;17546;42.674;23.284;2023-04-05T07:21:44;94369.53;;;6.35;46.77
30819;BME280;17546;42.674;23.284;2023-04-05T07:24:09;94370.06;;;6.54;48.22
30819;BME280;17546;42.674;23.284;2023-04-05T07:26:35;94364.66;;;6.24;46.53
30819;BME280;17546;42.674;23.284;2023-04-05T07:29:04;94363.13;;;6.23;46.71
30819;BME280;17546;42.674;23.284;2023-04-05T07:31:30;94377.69;;;7.00;45.25
30819;BME280;17546;42.674;23.284;2023-04-05T07:33:56;94370.16;;;6.80;45.61
30819;BME280;17546;42.674;23.284;2023-04-05T07:36:22;94381.53;;;6.88;45.62
30819;BME280;17546;42.674;23.284;2023-04-05T07:38:48;94386.78;;;7.06;44.92
30819;BME280;17546;42.674;23.284;2023-04-05T07:41:13;94362.94;;;6.82;44.90
30819;BME280;17546;42.674;23.284;2023-04-05T07:43:41;94377.69;;;7.00;45.80
30819;BME280;17546;42.674;23.284;2023-04-05T07:46:06;94374.38;;;7.37;45.52
30819;BME280;17546;42.674;23.284;2023-04-05T07:48:32;94385.28;;;7.52;44.40
30819;BME280;17546;42.674;23.284;2023-04-05T07:51:08;94377.81;;;7.11;45.47
30819;BME280;17546;42.674;23.284;2023-04-05T07:53:35;94366.38;;;6.77;45.45
30819;BME280;17546;42.674;23.284;2023-04-05T07:56:08;94396.41;;;7.16;45.74
30819;BME280;17546;42.674;23.284;2023-04-05T07:58:34;94413.84;;;7.28;44.71
30819;BME280;17546;42.674;23.284;2023-04-05T08:01:01;94417.81;;;6.86;46.06
30819;BME280;17546;42.674;23.284;2023-04-05T08:03:31;94413.34;;;6.89;44.89
30819;BME280;17546;42.674;23.284;2023-04-05T08:05:59;94393.06;;;6.51;45.42
30819;BME280;17546;42.674;23.284;2023-04-05T08:08:24;94387.81;;;6.88;44.93
30819;BME280;17546;42.674;23.284;2023-04-05T08:10:50;94388.94;;;6.61;45.97
30819;BME280;17546;42.674;23.284;2023-04-05T08:13:15;94422.47;;;6.45;46.73
30819;BME280;17546;42.674;23.284;2023-04-05T08:15:41;94426.03;;;7.21;45.33
30819;BME280;17546;42.674;23.284;2023-04-05T08:18:07;94424.09;;;6.72;46.32
30819;BME280;17546;42.674;23.284;2023-04-05T08:20:32;94418.66;;;7.13;46.06
30819;BME280;17546;42.674;23.284;2023-04-05T08:23:05;94397.22;;;7.43;44.43
30819;BME280;17546;42.674;23.284;2023-04-05T08:25:32;94428.56;;;7.45;44.75
30819;BME280;17546;42.674;23.284;2023-04-05T08:27:57;94433.41;;;7.30;45.78
30819;BME280;17546;42.674;23.284;2023-04-05T08:30:22;94431.50;;;7.62;45.09
30819;BME280;17546;42.674;23.284;2023-04-05T08:32:48;94430.66;;;7.77;44.54
30819;BME280;17546;42.674;23.284;2023-04-05T08:35:14;94404.16;;;7.59;44.79
30819;BME280;17546;42.674;23.284;2023-04-05T08:37:40;94410.22;;;7.89;44.35
30819;BME280;17546;42.674;23.284;2023-04-05T08:40:06;94436.22;;;7.82;44.88
30819;BME280;17546;42.674;23.284;2023-04-05T08:42:41;94415.38;;;6.73;46.32
30819;BME280;17546;42.674;23.284;2023-04-05T08:45:09;94447.13;;;6.89;45.93
30819;BME280;17546;42.674;23.284;2023-04-05T08:47:36;94421.19;;;6.96;45.22
30819;BME280;17546;42.674;23.284;2023-04-05T08:50:03;94438.91;;;7.30;44.66
30819;BME280;17546;42.674;23.284;2023-04-05T08:52:30;94446.69;;;7.11;44.97
30819;BME280;17546;42.674;23.284;2023-04-05T08:54:57;94446.75;;;7.37;44.74
30819;BME280;17546;42.674;23.284;2023-04-05T08:57:28;94447.75;;;7.81;44.27
30819;BME280;17546;42.674;23.284;2023-04-05T08:59:58;94435.94;;;7.13;45.65
30819;BME280;17546;42.674;23.284;2023-04-05T09:02:25;94455.34;;;7.45;45.51
30819;BME280;17546;42.674;23.284;2023-04-05T09:04:51;94439.38;;;7.08;45.83
30819;BME280;17546;42.674;23.284;2023-04-05T09:07:18;94455.34;;;6.83;46.74
30819;BME280;17546;42.674;23.284;2023-04-05T09:09:51;94461.09;;;6.06;47.54
30819;BME280;17546;42.674;23.284;2023-04-05T09:12:19;94460.78;;;6.63;46.96
30819;BME280;17546;42.674;23.284;2023-04-05T09:14:46;94433.81;;;6.67;45.61
30819;BME280;17546;42.674;23.284;2023-04-05T09:17:15;94444.97;;;6.78;46.79
30819;BME280;17546;42.674;23.284;2023-04-05T09:19:41;94450.00;;;7.36;46.55
30819;BME280;17546;42.674;23.284;2023-04-05T09:22:08;94460.31;;;7.61;45.83
30819;BME280;17546;42.674;23.284;2023-04-05T09:24:40;94448.38;;;7.70;45.91
30819;BME280;17546;42.674;23.284;2023-04-05T09:27:13;94457.50;;;7.76;45.65
30819;BME280;17546;42.674;23.284;2023-04-05T09:29:40;94440.50;;;8.10;45.34
30819;BME280;17546;42.674;23.284;2023-04-05T09:32:08;94451.63;;;7.69;45.41
30819;BME280;17546;42.674;23.284;2023-04-05T09:34:34;94444.28;;;7.19;46.49
30819;BME280;17546;42.674;23.284;2023-04-05T09:37:17;94434.44;;;7.79;45.03
30819;BME280;17546;42.674;23.284;2023-04-05T09:39:45;94444.25;;;7.60;44.86
30819;BME280;17546;42.674;23.284;2023-04-05T09:44:54;94456.69;;;7.96;44.11
30819;BME280;17546;42.674;23.284;2023-04-05T09:47:24;94450.50;;;7.81;44.71
30819;BME280;17546;42.674;23.284;2023-04-05T09:49:51;94449.06;;;8.12;44.33
30819;BME280;17546;42.674;23.284;2023-04-05T09:52:24;94437.16;;;8.00;44.38
30819;BME280;17546;42.674;23.284;2023-04-05T09:54:52;94434.44;;;8.05;43.84
30819;BME280;17546;42.674;23.284;2023-04-05T09:57:22;94438.88;;;8.50;43.11
30819;BME280;17546;42.674;23.284;2023-04-05T09:59:47;94440.69;;;8.32;42.81
30819;BME280;17546;42.674;23.284;2023-04-05T10:02:14;94438.44;;;8.31;42.37
30819;BME280;17546;42.674;23.284;2023-04-05T10:04:45;94443.16;;;7.72;42.68
30819;BME280;17546;42.674;23.284;2023-04-05T10:07:18;94413.88;;;7.54;42.87
30819;BME280;17546;42.674;23.284;2023-04-05T10:09:47;94431.38;;;7.51;43.25
30819;BME280;17546;42.674;23.284;2023-04-05T10:12:26;94446.88;;;7.95;42.95
30819;BME280;17546;42.674;23.284;2023-04-05T10:14:53;94448.13;;;7.94;42.71
30819;BME280;17546;42.674;23.284;2023-04-05T10:20:14;94431.63;;;7.74;42.70
30819;BME280;17546;42.674;23.284;2023-04-05T10:23:30;94451.78;;;7.59;43.78
30819;BME280;17546;42.674;23.284;2023-04-05T10:25:59;94449.34;;;7.67;43.23
30819;BME280;17546;42.674;23.284;2023-04-05T10:28:32;94438.56;;;8.16;42.80
30819;BME280;17546;42.674;23.284;2023-04-05T10:33:43;94435.84;;;8.47;41.49
30819;BME280;17546;42.674;23.284;2023-04-05T10:41:15;94453.50;;;8.35;41.75
30819;BME280;17546;42.674;23.284;2023-04-05T10:43:41;94454.13;;;8.19;42.01
30819;BME280;17546;42.674;23.284;2023-04-05T10:46:09;94442.59;;;8.78;41.28
30819;BME280;17546;42.674;23.284;2023-04-05T10:49:03;94446.78;;;8.68;41.46
30819;BME280;17546;42.674;23.284;2023-04-05T10:51:33;94437.75;;;8.10;42.03
30819;BME280;17546;42.674;23.284;2023-04-05T10:53:59;94432.06;;;7.93;41.92
30819;BME280;17546;42.674;23.284;2023-04-05T10:56:25;94450.28;;;8.68;41.14
30819;BME280;17546;42.674;23.284;2023-04-05T10:58:51;94446.31;;;8.12;41.23
30819;BME280;17546;42.674;23.284;2023-04-05T11:01:18;94432.28;;;8.41;40.47
30819;BME280;17546;42.674;23.284;2023-04-05T11:03:48;94442.66;;;8.26;40.97
30819;BME280;17546;42.674;23.284;2023-04-05T11:06:31;94437.69;;;7.78;42.37
30819;BME280;17546;42.674;23.284;2023-04-05T11:09:15;94435.53;;;8.14;41.92
30819;BME280;17546;42.674;23.284;2023-04-05T11:11:46;94462.78;;;8.06;42.28
30819;BME280;17546;42.674;23.284;2023-04-05T11:14:25;94462.22;;;7.76;42.82
30819;BME280;17546;42.674;23.284;2023-04-05T11:16:54;94472.34;;;8.37;41.68
30819;BME280;17546;42.674;23.284;2023-04-05T11:22:12;94457.72;;;8.25;41.43
30819;BME280;17546;42.674;23.284;2023-04-05T11:24:51;94456.81;;;8.39;41.36
30819;BME280;17546;42.674;23.284;2023-04-05T11:27:24;94455.91;;;8.22;41.89
30819;BME280;17546;42.674;23.284;2023-04-05T11:29:51;94458.91;;;8.18;42.02
30819;BME280;17546;42.674;23.284;2023-04-05T11:32:19;94437.13;;;8.52;41.46
30819;BME280;17546;42.674;23.284;2023-04-05T11:34:57;94456.72;;;8.28;41.83
30819;BME280;17546;42.674;23.284;2023-04-05T11:40:35;94459.31;;;9.01;40.95
30819;BME280;17546;42.674;23.284;2023-04-05T11:43:06;94455.97;;;8.54;40.98
30819;BME280;17546;42.674;23.284;2023-04-05T11:45:33;94437.22;;;8.63;41.35
30819;BME280;17546;42.674;23.284;2023-04-05T11:48:19;94460.81;;;9.02;40.34
30819;BME280;17546;42.674;23.284;2023-04-05T11:50:46;94438.50;;;7.84;42.58
30819;BME280;17546;42.674;23.284;2023-04-05T11:53:16;94463.22;;;8.25;41.74
30819;BME280;17546;42.674;23.284;2023-04-05T11:55:44;94432.88;;;8.57;41.05
30819;BME280;17546;42.674;23.284;2023-04-05T11:58:15;94433.97;;;8.65;41.18
30819;BME280;17546;42.674;23.284;2023-04-05T12:00:44;94453.84;;;9.12;40.71
30819;BME280;17546;42.674;23.284;2023-04-05T12:03:11;94398.47;;;8.89;39.74
30819;BME280;17546;42.674;23.284;2023-04-05T12:05:53;94454.84;;;9.09;40.57
30819;BME280;17546;42.674;23.284;2023-04-05T12:08:20;94439.84;;;8.46;41.82
30819;BME280;17546;42.674;23.284;2023-04-05T12:10:58;94439.34;;;7.96;42.53
30819;BME280;17546;42.674;23.284;2023-04-05T12:13:31;94450.47;;;8.33;42.21
30819;BME280;17546;42.674;23.284;2023-04-05T12:15:58;94459.63;;;9.08;41.34
30819;BME280;17546;42.674;23.284;2023-04-05T12:18:29;94451.91;;;9.29;41.02
30819;BME280;17546;42.674;23.284;2023-04-05T12:20:57;94461.06;;;9.47;40.91
30819;BME280;17546;42.674;23.284;2023-04-05T12:23:23;94460.94;;;9.24;41.31
30819;BME280;17546;42.674;23.284;2023-04-05T12:25:51;94422.88;;;8.33;42.28
30819;BME280;17546;42.674;23.284;2023-04-05T12:28:17;94444.75;;;8.63;42.32
30819;BME280;17546;42.674;23.284;2023-04-05T12:30:55;94438.72;;;9.02;41.75
30819;BME280;17546;42.674;23.284;2023-04-05T12:33:27;94465.16;;;9.14;41.69
30819;BME280;17546;42.674;23.284;2023-04-05T12:35:53;94432.81;;;8.83;41.44
30819;BME280;17546;42.674;23.284;2023-04-05T12:38:19;94452.31;;;8.68;42.14
30819;BME280;17546;42.674;23.284;2023-04-05T12:40:44;94461.78;;;8.99;41.86
30819;BME280;17546;42.674;23.284;2023-04-05T12:43:10;94434.41;;;8.58;41.87
30819;BME280;17546;42.674;23.284;2023-04-05T12:45:36;94439.50;;;8.71;41.76
30819;BME280;17546;42.674;23.284;2023-04-05T12:48:23;94461.19;;;8.83;41.24
30819;BME280;17546;42.674;23.284;2023-04-05T12:50:51;94454.63;;;8.17;42.67
30819;BME280;17546;42.674;23.284;2023-04-05T12:53:21;94441.81;;;8.14;42.76
30819;BME280;17546;42.674;23.284;2023-04-05T12:55:52;94426.91;;;8.64;42.53
30819;BME280;17546;42.674;23.284;2023-04-05T12:58:38;94464.28;;;8.59;42.30
30819;BME280;17546;42.674;23.284;2023-04-05T13:01:04;94440.81;;;8.43;42.09
30819;BME280;17546;42.674;23.284;2023-04-05T13:03:30;94453.22;;;8.54;42.08
30819;BME280;17546;42.674;23.284;2023-04-05T13:05:55;94458.25;;;8.29;41.99
30819;BME280;17546;42.674;23.284;2023-04-05T13:08:21;94469.06;;;8.59;41.25
30819;BME280;17546;42.674;23.284;2023-04-05T13:10:47;94450.03;;;8.08;41.59
30819;BME280;17546;42.674;23.284;2023-04-05T13:13:14;94475.13;;;8.11;41.75
30819;BME280;17546;42.674;23.284;2023-04-05T13:15:40;94468.75;;;8.51;41.21
30819;BME280;17546;42.674;23.284;2023-04-05T13:18:06;94474.38;;;8.62;41.05
30819;BME280;17546;42.674;23.284;2023-04-05T13:20:32;94471.00;;;8.53;40.97
30819;BME280;17546;42.674;23.284;2023-04-05T13:22:58;94463.06;;;8.66;41.10
30819;BME280;17546;42.674;23.284;2023-04-05T13:25:23;94469.13;;;9.07;40.46
30819;BME280;17546;42.674;23.284;2023-04-05T13:27:49;94440.03;;;9.12;40.56
30819;BME280;17546;42.674;23.284;2023-04-05T13:30:15;94470.94;;;9.16;40.50
30819;BME280;17546;42.674;23.284;2023-04-05T13:32:41;94451.44;;;9.37;39.70